sensor_id;sensor_type;location;lat;lon;timestamp;P1;durP1;ratioP1;P2;durP2;ratioP2
54406;SDS011;40313;50.308;30.374;2022-09-27T00:01:24;10.32;;;9.52;;
54406;SDS011;40313;50.308;30.374;2022-09-27T00:03:53;11.10;;;9.95;;
54406;SDS011;40313;50.308;30.374;2022-09-27T00:06:23;13.73;;;9.18;;
54406;SDS011;40313;50.308;30.374;2022-09-27T00:08:52;10.60;;;9.25;;
54406;SDS011;40313;50.308;30.374;2022-09-27T00:11:24;14.60;;;10.52;;
54406;SDS011;40313;50.308;30.374;2022-09-27T00:13:52;17.65;;;9.75;;
54406;SDS011;40313;50.308;30.374;2022-09-27T00:16:19;36.92;;;9.68;;
54406;SDS011;40313;50.308;30.374;2022-09-27T00:18:46;10.73;;;9.63;;
54406;SDS011;40313;50.308;30.374;2022-09-27T00:21:13;10.38;;;9.70;;
54406;SDS011;40313;50.308;30.374;2022-09-27T00:23:41;15.07;;;8.95;;
54406;SDS011;40313;50.308;30.374;2022-09-27T00:26:10;9.13;;;8.52;;
54406;SDS011;40313;50.308;30.374;2022-09-27T00:28:38;9.48;;;8.82;;
54406;SDS011;40313;50.308;30.374;2022-09-27T00:31:09;9.57;;;8.90;;
54406;SDS011;40313;50.308;30.374;2022-09-27T00:33:42;10.07;;;8.25;;
54406;SDS011;40313;50.308;30.374;2022-09-27T00:40:47;10.32;;;9.57;;
54406;SDS011;40313;50.308;30.374;2022-09-27T00:43:15;10.27;;;9.68;;
54406;SDS011;40313;50.308;30.374;2022-09-27T00:45:45;9.40;;;8.90;;
54406;SDS011;40313;50.308;30.374;2022-09-27T00:48:16;10.48;;;9.70;;
54406;SDS011;40313;50.308;30.374;2022-09-27T00:50:47;9.80;;;9.35;;
54406;SDS011;40313;50.308;30.374;2022-09-27T00:53:17;13.35;;;10.43;;
54406;SDS011;40313;50.308;30.374;2022-09-27T00:55:51;10.35;;;9.35;;
54406;SDS011;40313;50.308;30.374;2022-09-27T00:58:22;10.25;;;9.07;;
54406;SDS011;40313;50.308;30.374;2022-09-27T01:00:53;9.48;;;8.65;;
54406;SDS011;40313;50.308;30.374;2022-09-27T01:03:25;9.23;;;8.52;;
54406;SDS011;40313;50.308;30.374;2022-09-27T01:05:58;11.45;;;9.40;;
54406;SDS011;40313;50.308;30.374;2022-09-27T01:08:26;8.80;;;7.90;;
54406;SDS011;40313;50.308;30.374;2022-09-27T01:11:03;9.50;;;8.80;;
54406;SDS011;40313;50.308;30.374;2022-09-27T01:13:42;9.48;;;8.60;;
54406;SDS011;40313;50.308;30.374;2022-09-27T01:16:17;10.93;;;9.93;;
54406;SDS011;40313;50.308;30.374;2022-09-27T01:18:57;9.05;;;8.50;;
54406;SDS011;40313;50.308;30.374;2022-09-27T01:21:40;9.30;;;8.52;;
54406;SDS011;40313;50.308;30.374;2022-09-27T01:30:29;12.00;;;8.68;;
54406;SDS011;40313;50.308;30.374;2022-09-27T01:33:06;15.93;;;9.93;;
54406;SDS011;40313;50.308;30.374;2022-09-27T01:35:42;10.30;;;9.27;;
54406;SDS011;40313;50.308;30.374;2022-09-27T01:38:24;10.27;;;8.82;;
54406;SDS011;40313;50.308;30.374;2022-09-27T01:41:01;9.75;;;8.90;;
54406;SDS011;40313;50.308;30.374;2022-09-27T01:43:31;9.40;;;8.20;;
54406;SDS011;40313;50.308;30.374;2022-09-27T01:46:05;8.75;;;8.23;;
54406;SDS011;40313;50.308;30.374;2022-09-27T01:48:37;10.13;;;8.88;;
54406;SDS011;40313;50.308;30.374;2022-09-27T01:51:08;8.38;;;7.85;;
54406;SDS011;40313;50.308;30.374;2022-09-27T01:53:40;11.27;;;9.88;;
54406;SDS011;40313;50.308;30.374;2022-09-27T01:56:12;11.02;;;9.93;;
54406;SDS011;40313;50.308;30.374;2022-09-27T01:58:43;9.60;;;8.85;;
54406;SDS011;40313;50.308;30.374;2022-09-27T02:01:17;14.70;;;10.37;;
54406;SDS011;40313;50.308;30.374;2022-09-27T02:03:46;12.45;;;11.63;;
54406;SDS011;40313;50.308;30.374;2022-09-27T02:06:16;12.68;;;11.15;;
54406;SDS011;40313;50.308;30.374;2022-09-27T02:08:48;13.98;;;12.65;;
54406;SDS011;40313;50.308;30.374;2022-09-27T02:11:18;17.25;;;12.38;;
54406;SDS011;40313;50.308;30.374;2022-09-27T02:13:45;13.20;;;11.70;;
54406;SDS011;40313;50.308;30.374;2022-09-27T02:16:25;17.75;;;12.57;;
54406;SDS011;40313;50.308;30.374;2022-09-27T02:19:00;14.00;;;12.70;;
54406;SDS011;40313;50.308;30.374;2022-09-27T02:21:37;15.85;;;13.63;;
54406;SDS011;40313;50.308;30.374;2022-09-27T02:24:08;15.60;;;13.68;;
54406;SDS011;40313;50.308;30.374;2022-09-27T02:26:40;13.65;;;12.57;;
54406;SDS011;40313;50.308;30.374;2022-09-27T02:29:11;14.18;;;12.75;;
54406;SDS011;40313;50.308;30.374;2022-09-27T02:31:43;14.85;;;13.50;;
54406;SDS011;40313;50.308;30.374;2022-09-27T02:34:10;18.27;;;14.20;;
54406;SDS011;40313;50.308;30.374;2022-09-27T02:36:40;18.02;;;13.95;;
54406;SDS011;40313;50.308;30.374;2022-09-27T02:39:07;20.30;;;13.48;;
54406;SDS011;40313;50.308;30.374;2022-09-27T02:41:34;16.55;;;14.93;;
54406;SDS011;40313;50.308;30.374;2022-09-27T02:44:02;15.07;;;13.48;;
54406;SDS011;40313;50.308;30.374;2022-09-27T02:46:39;22.83;;;13.02;;
54406;SDS011;40313;50.308;30.374;2022-09-27T02:49:28;17.38;;;12.52;;
54406;SDS011;40313;50.308;30.374;2022-09-27T02:52:11;19.77;;;15.27;;
54406;SDS011;40313;50.308;30.374;2022-09-27T02:54:46;15.35;;;14.00;;
54406;SDS011;40313;50.308;30.374;2022-09-27T02:57:25;20.23;;;14.52;;
54406;SDS011;40313;50.308;30.374;2022-09-27T03:00:04;15.65;;;14.02;;
54406;SDS011;40313;50.308;30.374;2022-09-27T03:02:37;15.23;;;13.63;;
54406;SDS011;40313;50.308;30.374;2022-09-27T03:05:14;18.20;;;13.90;;
54406;SDS011;40313;50.308;30.374;2022-09-27T03:07:44;15.40;;;13.32;;
54406;SDS011;40313;50.308;30.374;2022-09-27T03:10:14;22.83;;;13.93;;
54406;SDS011;40313;50.308;30.374;2022-09-27T03:12:42;15.70;;;13.80;;
54406;SDS011;40313;50.308;30.374;2022-09-27T03:15:09;16.35;;;13.20;;
54406;SDS011;40313;50.308;30.374;2022-09-27T03:17:37;17.40;;;14.35;;
54406;SDS011;40313;50.308;30.374;2022-09-27T03:20:04;16.23;;;14.75;;
54406;SDS011;40313;50.308;30.374;2022-09-27T03:22:31;15.98;;;13.95;;
54406;SDS011;40313;50.308;30.374;2022-09-27T03:24:58;23.30;;;15.57;;
54406;SDS011;40313;50.308;30.374;2022-09-27T03:27:25;20.52;;;14.77;;
54406;SDS011;40313;50.308;30.374;2022-09-27T03:29:51;20.20;;;15.98;;
54406;SDS011;40313;50.308;30.374;2022-09-27T03:32:18;19.00;;;16.42;;
54406;SDS011;40313;50.308;30.374;2022-09-27T03:34:46;22.58;;;16.50;;
54406;SDS011;40313;50.308;30.374;2022-09-27T03:37:13;22.63;;;16.00;;
54406;SDS011;40313;50.308;30.374;2022-09-27T03:39:39;29.45;;;17.88;;
54406;SDS011;40313;50.308;30.374;2022-09-27T03:42:06;18.88;;;16.95;;
54406;SDS011;40313;50.308;30.374;2022-09-27T03:44:32;19.55;;;17.45;;
54406;SDS011;40313;50.308;30.374;2022-09-27T03:46:59;19.05;;;16.95;;
54406;SDS011;40313;50.308;30.374;2022-09-27T03:49:25;24.80;;;18.90;;
54406;SDS011;40313;50.308;30.374;2022-09-27T03:51:53;25.67;;;18.08;;
54406;SDS011;40313;50.308;30.374;2022-09-27T03:54:20;24.25;;;19.08;;
54406;SDS011;40313;50.308;30.374;2022-09-27T03:56:46;26.60;;;19.13;;
54406;SDS011;40313;50.308;30.374;2022-09-27T03:59:13;29.42;;;17.58;;
54406;SDS011;40313;50.308;30.374;2022-09-27T04:01:40;25.63;;;18.83;;
54406;SDS011;40313;50.308;30.374;2022-09-27T04:04:08;31.52;;;19.17;;
54406;SDS011;40313;50.308;30.374;2022-09-27T04:06:35;29.08;;;21.92;;
54406;SDS011;40313;50.308;30.374;2022-09-27T04:09:03;26.58;;;21.25;;
54406;SDS011;40313;50.308;30.374;2022-09-27T04:11:30;39.38;;;22.80;;
54406;SDS011;40313;50.308;30.374;2022-09-27T04:13:56;30.17;;;21.15;;
54406;SDS011;40313;50.308;30.374;2022-09-27T04:16:23;37.40;;;21.67;;
54406;SDS011;40313;50.308;30.374;2022-09-27T04:18:51;30.27;;;20.25;;
54406;SDS011;40313;50.308;30.374;2022-09-27T04:21:17;24.75;;;22.02;;
54406;SDS011;40313;50.308;30.374;2022-09-27T04:23:45;34.08;;;23.00;;
54406;SDS011;40313;50.308;30.374;2022-09-27T04:26:13;38.95;;;23.67;;
54406;SDS011;40313;50.308;30.374;2022-09-27T04:28:40;24.10;;;21.58;;
54406;SDS011;40313;50.308;30.374;2022-09-27T04:31:06;26.58;;;20.33;;
54406;SDS011;40313;50.308;30.374;2022-09-27T04:33:33;37.90;;;22.75;;
54406;SDS011;40313;50.308;30.374;2022-09-27T04:36:00;37.35;;;22.42;;
54406;SDS011;40313;50.308;30.374;2022-09-27T04:38:44;28.75;;;22.77;;
54406;SDS011;40313;50.308;30.374;2022-09-27T04:41:10;40.97;;;23.55;;
54406;SDS011;40313;50.308;30.374;2022-09-27T04:43:39;43.58;;;24.75;;
54406;SDS011;40313;50.308;30.374;2022-09-27T04:46:05;30.35;;;24.67;;
54406;SDS011;40313;50.308;30.374;2022-09-27T04:48:32;34.08;;;25.85;;
54406;SDS011;40313;50.308;30.374;2022-09-27T04:50:58;35.35;;;24.25;;
54406;SDS011;40313;50.308;30.374;2022-09-27T04:53:26;35.53;;;23.23;;
54406;SDS011;40313;50.308;30.374;2022-09-27T04:55:53;31.95;;;22.80;;
54406;SDS011;40313;50.308;30.374;2022-09-27T04:58:20;31.13;;;22.67;;
54406;SDS011;40313;50.308;30.374;2022-09-27T05:00:48;42.20;;;22.13;;
54406;SDS011;40313;50.308;30.374;2022-09-27T05:03:16;38.40;;;21.58;;
54406;SDS011;40313;50.308;30.374;2022-09-27T05:05:43;24.88;;;21.13;;
54406;SDS011;40313;50.308;30.374;2022-09-27T05:08:09;32.30;;;23.55;;
54406;SDS011;40313;50.308;30.374;2022-09-27T05:10:36;31.13;;;22.48;;
54406;SDS011;40313;50.308;30.374;2022-09-27T05:13:03;24.98;;;22.08;;
54406;SDS011;40313;50.308;30.374;2022-09-27T05:15:30;38.83;;;21.08;;
54406;SDS011;40313;50.308;30.374;2022-09-27T05:17:59;33.10;;;21.77;;
54406;SDS011;40313;50.308;30.374;2022-09-27T05:20:25;34.47;;;22.05;;
54406;SDS011;40313;50.308;30.374;2022-09-27T05:22:52;27.55;;;21.75;;
54406;SDS011;40313;50.308;30.374;2022-09-27T05:25:19;32.70;;;21.02;;
54406;SDS011;40313;50.308;30.374;2022-09-27T05:27:45;31.85;;;22.17;;
54406;SDS011;40313;50.308;30.374;2022-09-27T05:30:12;32.72;;;22.50;;
54406;SDS011;40313;50.308;30.374;2022-09-27T05:32:39;35.10;;;23.60;;
54406;SDS011;40313;50.308;30.374;2022-09-27T05:35:10;32.15;;;21.30;;
54406;SDS011;40313;50.308;30.374;2022-09-27T05:37:37;31.50;;;22.13;;
54406;SDS011;40313;50.308;30.374;2022-09-27T05:40:05;23.73;;;21.20;;
54406;SDS011;40313;50.308;30.374;2022-09-27T05:42:32;28.63;;;21.73;;
54406;SDS011;40313;50.308;30.374;2022-09-27T05:45:03;31.88;;;21.70;;
54406;SDS011;40313;50.308;30.374;2022-09-27T05:47:31;35.47;;;22.23;;
54406;SDS011;40313;50.308;30.374;2022-09-27T05:49:57;35.22;;;23.35;;
54406;SDS011;40313;50.308;30.374;2022-09-27T05:52:25;24.27;;;21.83;;
54406;SDS011;40313;50.308;30.374;2022-09-27T05:54:52;40.80;;;22.88;;
54406;SDS011;40313;50.308;30.374;2022-09-27T05:57:19;27.48;;;21.60;;
54406;SDS011;40313;50.308;30.374;2022-09-27T05:59:46;28.77;;;22.42;;
54406;SDS011;40313;50.308;30.374;2022-09-27T06:02:12;31.70;;;22.05;;
54406;SDS011;40313;50.308;30.374;2022-09-27T06:04:39;34.97;;;23.27;;
54406;SDS011;40313;50.308;30.374;2022-09-27T06:07:05;46.03;;;25.25;;
54406;SDS011;40313;50.308;30.374;2022-09-27T06:09:33;49.00;;;24.80;;
54406;SDS011;40313;50.308;30.374;2022-09-27T06:12:00;43.83;;;24.95;;
54406;SDS011;40313;50.308;30.374;2022-09-27T06:14:27;63.70;;;25.95;;
54406;SDS011;40313;50.308;30.374;2022-09-27T06:16:53;35.08;;;24.38;;
54406;SDS011;40313;50.308;30.374;2022-09-27T06:19:21;45.25;;;23.63;;
54406;SDS011;40313;50.308;30.374;2022-09-27T06:21:48;42.10;;;26.10;;
54406;SDS011;40313;50.308;30.374;2022-09-27T06:24:15;43.67;;;25.70;;
54406;SDS011;40313;50.308;30.374;2022-09-27T06:26:43;45.53;;;24.48;;
54406;SDS011;40313;50.308;30.374;2022-09-27T06:29:10;52.33;;;27.60;;
54406;SDS011;40313;50.308;30.374;2022-09-27T06:31:36;56.95;;;28.00;;
54406;SDS011;40313;50.308;30.374;2022-09-27T06:34:03;46.33;;;26.48;;
54406;SDS011;40313;50.308;30.374;2022-09-27T06:36:30;62.83;;;26.73;;
54406;SDS011;40313;50.308;30.374;2022-09-27T06:38:57;53.67;;;26.15;;
54406;SDS011;40313;50.308;30.374;2022-09-27T06:41:25;40.20;;;24.85;;
54406;SDS011;40313;50.308;30.374;2022-09-27T06:43:53;51.30;;;24.65;;
54406;SDS011;40313;50.308;30.374;2022-09-27T06:46:20;47.90;;;24.45;;
54406;SDS011;40313;50.308;30.374;2022-09-27T06:48:46;44.92;;;25.08;;
54406;SDS011;40313;50.308;30.374;2022-09-27T06:51:13;48.72;;;22.83;;
54406;SDS011;40313;50.308;30.374;2022-09-27T06:53:39;47.80;;;23.60;;
54406;SDS011;40313;50.308;30.374;2022-09-27T06:56:06;41.20;;;22.45;;
54406;SDS011;40313;50.308;30.374;2022-09-27T06:58:33;60.20;;;25.45;;
54406;SDS011;40313;50.308;30.374;2022-09-27T07:01:18;49.38;;;22.35;;
54406;SDS011;40313;50.308;30.374;2022-09-27T07:03:48;53.95;;;23.55;;
54406;SDS011;40313;50.308;30.374;2022-09-27T07:06:15;61.97;;;23.88;;
54406;SDS011;40313;50.308;30.374;2022-09-27T07:08:44;53.25;;;24.13;;
54406;SDS011;40313;50.308;30.374;2022-09-27T07:11:14;51.85;;;22.55;;
54406;SDS011;40313;50.308;30.374;2022-09-27T07:13:41;49.88;;;22.90;;
54406;SDS011;40313;50.308;30.374;2022-09-27T07:16:09;54.05;;;21.85;;
54406;SDS011;40313;50.308;30.374;2022-09-27T07:18:38;56.20;;;23.45;;
54406;SDS011;40313;50.308;30.374;2022-09-27T07:21:05;49.72;;;22.92;;
54406;SDS011;40313;50.308;30.374;2022-09-27T07:23:33;64.25;;;23.00;;
54406;SDS011;40313;50.308;30.374;2022-09-27T07:26:00;45.13;;;22.17;;
54406;SDS011;40313;50.308;30.374;2022-09-27T07:28:29;49.58;;;22.77;;
54406;SDS011;40313;50.308;30.374;2022-09-27T07:30:55;51.40;;;22.70;;
54406;SDS011;40313;50.308;30.374;2022-09-27T07:33:22;54.55;;;22.80;;
54406;SDS011;40313;50.308;30.374;2022-09-27T07:35:50;48.45;;;22.83;;
54406;SDS011;40313;50.308;30.374;2022-09-27T07:38:26;57.58;;;23.63;;
54406;SDS011;40313;50.308;30.374;2022-09-27T07:41:11;62.80;;;22.75;;
54406;SDS011;40313;50.308;30.374;2022-09-27T07:43:39;40.50;;;21.00;;
54406;SDS011;40313;50.308;30.374;2022-09-27T07:46:05;48.22;;;23.10;;
54406;SDS011;40313;50.308;30.374;2022-09-27T07:48:32;70.72;;;25.85;;
54406;SDS011;40313;50.308;30.374;2022-09-27T07:51:00;54.25;;;22.20;;
54406;SDS011;40313;50.308;30.374;2022-09-27T07:53:27;43.40;;;20.65;;
54406;SDS011;40313;50.308;30.374;2022-09-27T07:55:53;45.55;;;21.63;;
54406;SDS011;40313;50.308;30.374;2022-09-27T07:58:21;58.10;;;22.40;;
54406;SDS011;40313;50.308;30.374;2022-09-27T08:00:47;49.15;;;20.73;;
54406;SDS011;40313;50.308;30.374;2022-09-27T08:03:15;53.42;;;22.08;;
54406;SDS011;40313;50.308;30.374;2022-09-27T08:05:43;42.63;;;22.10;;
54406;SDS011;40313;50.308;30.374;2022-09-27T08:08:12;56.35;;;21.88;;
54406;SDS011;40313;50.308;30.374;2022-09-27T08:10:40;39.92;;;20.63;;
54406;SDS011;40313;50.308;30.374;2022-09-27T08:13:08;36.67;;;18.70;;
54406;SDS011;40313;50.308;30.374;2022-09-27T08:15:35;48.35;;;20.60;;
54406;SDS011;40313;50.308;30.374;2022-09-27T08:18:02;35.70;;;19.50;;
54406;SDS011;40313;50.308;30.374;2022-09-27T08:20:29;38.88;;;20.23;;
54406;SDS011;40313;50.308;30.374;2022-09-27T08:22:56;31.95;;;17.27;;
54406;SDS011;40313;50.308;30.374;2022-09-27T08:25:24;37.13;;;18.20;;
54406;SDS011;40313;50.308;30.374;2022-09-27T08:27:55;35.83;;;17.77;;
54406;SDS011;40313;50.308;30.374;2022-09-27T08:30:23;28.45;;;18.05;;
54406;SDS011;40313;50.308;30.374;2022-09-27T08:32:53;21.35;;;17.17;;
54406;SDS011;40313;50.308;30.374;2022-09-27T08:35:20;26.20;;;16.52;;
54406;SDS011;40313;50.308;30.374;2022-09-27T08:37:51;21.25;;;15.55;;
54406;SDS011;40313;50.308;30.374;2022-09-27T08:40:18;18.70;;;16.15;;
54406;SDS011;40313;50.308;30.374;2022-09-27T08:42:51;29.00;;;17.42;;
54406;SDS011;40313;50.308;30.374;2022-09-27T08:45:28;20.08;;;14.90;;
54406;SDS011;40313;50.308;30.374;2022-09-27T08:47:58;27.35;;;16.27;;
54406;SDS011;40313;50.308;30.374;2022-09-27T08:50:27;19.92;;;15.90;;
54406;SDS011;40313;50.308;30.374;2022-09-27T08:52:56;25.02;;;15.45;;
54406;SDS011;40313;50.308;30.374;2022-09-27T08:55:27;16.27;;;14.15;;
54406;SDS011;40313;50.308;30.374;2022-09-27T08:58:03;14.55;;;13.27;;
54406;SDS011;40313;50.308;30.374;2022-09-27T09:00:37;17.27;;;13.52;;
54406;SDS011;40313;50.308;30.374;2022-09-27T09:03:04;14.13;;;12.93;;
54406;SDS011;40313;50.308;30.374;2022-09-27T09:05:32;17.50;;;13.35;;
54406;SDS011;40313;50.308;30.374;2022-09-27T09:08:09;13.32;;;12.18;;
54406;SDS011;40313;50.308;30.374;2022-09-27T09:10:56;13.07;;;11.95;;
54406;SDS011;40313;50.308;30.374;2022-09-27T09:14:09;18.75;;;13.20;;
54406;SDS011;40313;50.308;30.374;2022-09-27T09:16:51;17.88;;;12.50;;
54406;SDS011;40313;50.308;30.374;2022-09-27T09:22:04;16.30;;;12.70;;
54406;SDS011;40313;50.308;30.374;2022-09-27T09:24:46;13.90;;;12.65;;
54406;SDS011;40313;50.308;30.374;2022-09-27T09:27:23;13.57;;;12.63;;
54406;SDS011;40313;50.308;30.374;2022-09-27T09:30:03;14.30;;;13.05;;
54406;SDS011;40313;50.308;30.374;2022-09-27T09:32:45;18.10;;;13.35;;
54406;SDS011;40313;50.308;30.374;2022-09-27T09:35:27;14.32;;;13.27;;
54406;SDS011;40313;50.308;30.374;2022-09-27T09:37:59;13.90;;;12.57;;
54406;SDS011;40313;50.308;30.374;2022-09-27T09:40:30;14.55;;;13.20;;
54406;SDS011;40313;50.308;30.374;2022-09-27T09:45:37;14.40;;;13.20;;
54406;SDS011;40313;50.308;30.374;2022-09-27T09:48:10;16.10;;;14.20;;
54406;SDS011;40313;50.308;30.374;2022-09-27T09:50:44;15.82;;;13.73;;
54406;SDS011;40313;50.308;30.374;2022-09-27T09:53:15;14.55;;;13.07;;
54406;SDS011;40313;50.308;30.374;2022-09-27T09:55:45;15.25;;;13.20;;
54406;SDS011;40313;50.308;30.374;2022-09-27T09:58:19;14.18;;;12.98;;
54406;SDS011;40313;50.308;30.374;2022-09-27T10:00:51;12.43;;;11.43;;
54406;SDS011;40313;50.308;30.374;2022-09-27T10:03:21;25.27;;;14.93;;
54406;SDS011;40313;50.308;30.374;2022-09-27T10:05:48;20.23;;;14.48;;
54406;SDS011;40313;50.308;30.374;2022-09-27T10:08:16;13.40;;;12.23;;
54406;SDS011;40313;50.308;30.374;2022-09-27T10:10:45;14.75;;;13.38;;
54406;SDS011;40313;50.308;30.374;2022-09-27T10:13:13;21.50;;;16.58;;
54406;SDS011;40313;50.308;30.374;2022-09-27T10:15:42;18.50;;;16.48;;
54406;SDS011;40313;50.308;30.374;2022-09-27T10:18:14;19.38;;;16.02;;
54406;SDS011;40313;50.308;30.374;2022-09-27T10:20:44;14.60;;;13.38;;
54406;SDS011;40313;50.308;30.374;2022-09-27T10:23:16;16.35;;;14.05;;
54406;SDS011;40313;50.308;30.374;2022-09-27T10:25:46;22.90;;;18.17;;
54406;SDS011;40313;50.308;30.374;2022-09-27T10:28:26;29.75;;;20.15;;
54406;SDS011;40313;50.308;30.374;2022-09-27T10:30:57;25.92;;;20.45;;
54406;SDS011;40313;50.308;30.374;2022-09-27T10:33:27;26.15;;;19.35;;
54406;SDS011;40313;50.308;30.374;2022-09-27T10:35:55;30.48;;;19.55;;
54406;SDS011;40313;50.308;30.374;2022-09-27T10:38:24;32.38;;;17.77;;
54406;SDS011;40313;50.308;30.374;2022-09-27T10:40:53;23.27;;;17.48;;
54406;SDS011;40313;50.308;30.374;2022-09-27T10:43:23;21.77;;;17.38;;
54406;SDS011;40313;50.308;30.374;2022-09-27T10:45:58;22.05;;;16.55;;
54406;SDS011;40313;50.308;30.374;2022-09-27T10:48:29;15.52;;;14.20;;
54406;SDS011;40313;50.308;30.374;2022-09-27T10:50:56;15.30;;;13.85;;
54406;SDS011;40313;50.308;30.374;2022-09-27T10:53:25;16.65;;;14.15;;
54406;SDS011;40313;50.308;30.374;2022-09-27T10:55:53;16.45;;;12.98;;
54406;SDS011;40313;50.308;30.374;2022-09-27T10:58:23;23.58;;;14.95;;
54406;SDS011;40313;50.308;30.374;2022-09-27T11:00:53;16.52;;;14.82;;
54406;SDS011;40313;50.308;30.374;2022-09-27T11:03:21;16.75;;;15.02;;
54406;SDS011;40313;50.308;30.374;2022-09-27T11:05:51;18.63;;;16.73;;
54406;SDS011;40313;50.308;30.374;2022-09-27T11:08:21;26.38;;;17.58;;
54406;SDS011;40313;50.308;30.374;2022-09-27T11:11:01;23.38;;;15.60;;
54406;SDS011;40313;50.308;30.374;2022-09-27T11:13:32;18.38;;;16.52;;
54406;SDS011;40313;50.308;30.374;2022-09-27T11:16:07;18.92;;;17.25;;
54406;SDS011;40313;50.308;30.374;2022-09-27T11:18:46;28.05;;;17.27;;
54406;SDS011;40313;50.308;30.374;2022-09-27T11:21:24;19.05;;;17.15;;
54406;SDS011;40313;50.308;30.374;2022-09-27T11:24:09;31.60;;;19.13;;
54406;SDS011;40313;50.308;30.374;2022-09-27T11:26:49;20.27;;;18.52;;
54406;SDS011;40313;50.308;30.374;2022-09-27T11:29:31;21.92;;;17.98;;
54406;SDS011;40313;50.308;30.374;2022-09-27T11:32:12;18.70;;;17.25;;
54406;SDS011;40313;50.308;30.374;2022-09-27T11:37:59;19.50;;;17.90;;
54406;SDS011;40313;50.308;30.374;2022-09-27T11:40:47;22.95;;;16.48;;
54406;SDS011;40313;50.308;30.374;2022-09-27T11:43:30;16.77;;;15.32;;
54406;SDS011;40313;50.308;30.374;2022-09-27T11:46:18;26.38;;;19.60;;
54406;SDS011;40313;50.308;30.374;2022-09-27T11:48:54;23.08;;;20.73;;
54406;SDS011;40313;50.308;30.374;2022-09-27T11:51:38;25.17;;;21.17;;
54406;SDS011;40313;50.308;30.374;2022-09-27T11:54:35;23.35;;;17.58;;
54406;SDS011;40313;50.308;30.374;2022-09-27T11:57:14;18.63;;;16.83;;
54406;SDS011;40313;50.308;30.374;2022-09-27T12:00:00;19.40;;;17.67;;
54406;SDS011;40313;50.308;30.374;2022-09-27T12:02:39;18.50;;;16.45;;
54406;SDS011;40313;50.308;30.374;2022-09-27T12:05:24;25.23;;;16.70;;
54406;SDS011;40313;50.308;30.374;2022-09-27T12:08:00;37.63;;;25.67;;
54406;SDS011;40313;50.308;30.374;2022-09-27T12:10:46;42.45;;;27.02;;
54406;SDS011;40313;50.308;30.374;2022-09-27T12:13:16;38.00;;;24.13;;
54406;SDS011;40313;50.308;30.374;2022-09-27T12:15:54;40.50;;;25.23;;
54406;SDS011;40313;50.308;30.374;2022-09-27T12:18:23;30.17;;;22.35;;
54406;SDS011;40313;50.308;30.374;2022-09-27T12:20:53;33.05;;;21.85;;
54406;SDS011;40313;50.308;30.374;2022-09-27T12:23:21;36.13;;;24.02;;
54406;SDS011;40313;50.308;30.374;2022-09-27T12:25:54;50.53;;;31.55;;
54406;SDS011;40313;50.308;30.374;2022-09-27T12:28:25;47.55;;;30.08;;
54406;SDS011;40313;50.308;30.374;2022-09-27T12:31:02;51.55;;;30.10;;
54406;SDS011;40313;50.308;30.374;2022-09-27T12:33:36;45.90;;;29.02;;
54406;SDS011;40313;50.308;30.374;2022-09-27T12:36:08;44.00;;;28.00;;
54406;SDS011;40313;50.308;30.374;2022-09-27T12:38:41;60.22;;;31.90;;
54406;SDS011;40313;50.308;30.374;2022-09-27T12:41:16;45.15;;;26.85;;
54406;SDS011;40313;50.308;30.374;2022-09-27T12:43:46;39.45;;;25.30;;
54406;SDS011;40313;50.308;30.374;2022-09-27T12:46:16;49.17;;;28.13;;
54406;SDS011;40313;50.308;30.374;2022-09-27T12:48:51;49.85;;;29.60;;
54406;SDS011;40313;50.308;30.374;2022-09-27T12:51:30;52.35;;;27.65;;
54406;SDS011;40313;50.308;30.374;2022-09-27T12:54:07;44.13;;;26.55;;
54406;SDS011;40313;50.308;30.374;2022-09-27T12:56:53;32.58;;;24.88;;
54406;SDS011;40313;50.308;30.374;2022-09-27T12:59:32;45.75;;;24.80;;
54406;SDS011;40313;50.308;30.374;2022-09-27T13:02:15;38.30;;;23.17;;
54406;SDS011;40313;50.308;30.374;2022-09-27T13:05:16;45.78;;;24.02;;
54406;SDS011;40313;50.308;30.374;2022-09-27T13:08:01;47.33;;;27.20;;
54406;SDS011;40313;50.308;30.374;2022-09-27T13:10:45;52.60;;;30.30;;
54406;SDS011;40313;50.308;30.374;2022-09-27T13:13:23;42.35;;;28.95;;
54406;SDS011;40313;50.308;30.374;2022-09-27T13:15:54;56.75;;;31.13;;
54406;SDS011;40313;50.308;30.374;2022-09-27T13:18:31;63.88;;;37.40;;
54406;SDS011;40313;50.308;30.374;2022-09-27T13:24:28;65.63;;;42.08;;
54406;SDS011;40313;50.308;30.374;2022-09-27T13:26:56;64.10;;;37.88;;
54406;SDS011;40313;50.308;30.374;2022-09-27T13:29:27;66.43;;;39.67;;
54406;SDS011;40313;50.308;30.374;2022-09-27T13:34:49;54.72;;;33.38;;
54406;SDS011;40313;50.308;30.374;2022-09-27T13:40:23;42.53;;;26.05;;
54406;SDS011;40313;50.308;30.374;2022-09-27T13:45:58;47.78;;;26.55;;
54406;SDS011;40313;50.308;30.374;2022-09-27T13:48:31;50.60;;;27.25;;
54406;SDS011;40313;50.308;30.374;2022-09-27T13:51:05;42.92;;;25.65;;
54406;SDS011;40313;50.308;30.374;2022-09-27T13:53:53;48.55;;;28.08;;
54406;SDS011;40313;50.308;30.374;2022-09-27T13:59:16;44.08;;;27.00;;
54406;SDS011;40313;50.308;30.374;2022-09-27T14:01:54;41.45;;;26.52;;
54406;SDS011;40313;50.308;30.374;2022-09-27T14:04:26;45.53;;;25.90;;
54406;SDS011;40313;50.308;30.374;2022-09-27T14:06:55;42.05;;;26.95;;
54406;SDS011;40313;50.308;30.374;2022-09-27T14:09:24;36.22;;;25.35;;
54406;SDS011;40313;50.308;30.374;2022-09-27T14:11:55;49.00;;;26.73;;
54406;SDS011;40313;50.308;30.374;2022-09-27T14:14:25;57.33;;;33.28;;
54406;SDS011;40313;50.308;30.374;2022-09-27T14:16:55;44.38;;;31.40;;
54406;SDS011;40313;50.308;30.374;2022-09-27T14:19:24;45.83;;;27.25;;
54406;SDS011;40313;50.308;30.374;2022-09-27T14:21:52;40.15;;;26.65;;
54406;SDS011;40313;50.308;30.374;2022-09-27T14:24:20;57.63;;;31.50;;
54406;SDS011;40313;50.308;30.374;2022-09-27T14:27:02;37.25;;;26.52;;
54406;SDS011;40313;50.308;30.374;2022-09-27T14:29:31;41.88;;;25.98;;
54406;SDS011;40313;50.308;30.374;2022-09-27T14:32:04;39.20;;;27.27;;
54406;SDS011;40313;50.308;30.374;2022-09-27T14:34:34;37.05;;;26.77;;
54406;SDS011;40313;50.308;30.374;2022-09-27T14:37:00;45.03;;;27.30;;
54406;SDS011;40313;50.308;30.374;2022-09-27T14:39:45;41.55;;;26.95;;
54406;SDS011;40313;50.308;30.374;2022-09-27T14:42:19;49.53;;;27.55;;
54406;SDS011;40313;50.308;30.374;2022-09-27T14:44:49;40.08;;;26.10;;
54406;SDS011;40313;50.308;30.374;2022-09-27T14:47:19;39.17;;;27.02;;
54406;SDS011;40313;50.308;30.374;2022-09-27T14:49:47;56.00;;;34.67;;
54406;SDS011;40313;50.308;30.374;2022-09-27T14:52:15;48.08;;;28.83;;
54406;SDS011;40313;50.308;30.374;2022-09-27T14:54:53;43.75;;;28.10;;
54406;SDS011;40313;50.308;30.374;2022-09-27T14:57:20;39.05;;;27.23;;
54406;SDS011;40313;50.308;30.374;2022-09-27T14:59:47;47.95;;;27.65;;
54406;SDS011;40313;50.308;30.374;2022-09-27T15:02:15;45.03;;;27.27;;
54406;SDS011;40313;50.308;30.374;2022-09-27T15:04:46;41.90;;;26.17;;
54406;SDS011;40313;50.308;30.374;2022-09-27T15:07:14;39.90;;;27.00;;
54406;SDS011;40313;50.308;30.374;2022-09-27T15:09:41;47.95;;;27.38;;